sensor_id;sensor_type;location;lat;lon;timestamp;temperature;humidity
16700;DHT22;8466;52.286;21.124;2023-05-14T00:01:22;8.80;99.90
16700;DHT22;8466;52.286;21.124;2023-05-14T00:03:51;8.70;99.90
16700;DHT22;8466;52.286;21.124;2023-05-14T00:06:20;8.60;99.90
16700;DHT22;8466;52.286;21.124;2023-05-14T00:08:48;8.60;99.90
16700;DHT22;8466;52.286;21.124;2023-05-14T00:11:17;8.60;99.90
16700;DHT22;8466;52.286;21.124;2023-05-14T00:13:46;8.50;99.90
16700;DHT22;8466;52.286;21.124;2023-05-14T00:16:16;8.40;99.90
16700;DHT22;8466;52.286;21.124;2023-05-14T00:18:44;8.40;99.90
16700;DHT22;8466;52.286;21.124;2023-05-14T00:21:13;8.40;99.90
16700;DHT22;8466;52.286;21.124;2023-05-14T00:23:42;8.30;99.90
16700;DHT22;8466;52.286;21.124;2023-05-14T00:26:10;8.30;99.90
16700;DHT22;8466;52.286;21.124;2023-05-14T00:28:39;8.30;99.90
16700;DHT22;8466;52.286;21.124;2023-05-14T00:31:07;8.30;99.90
16700;DHT22;8466;52.286;21.124;2023-05-14T00:33:37;8.20;99.90
16700;DHT22;8466;52.286;21.124;2023-05-14T00:36:07;8.20;99.90
16700;DHT22;8466;52.286;21.124;2023-05-14T00:38:36;8.20;99.90
16700;DHT22;8466;52.286;21.124;2023-05-14T00:41:04;8.10;99.90
16700;DHT22;8466;52.286;21.124;2023-05-14T00:43:33;8.00;99.90
16700;DHT22;8466;52.286;21.124;2023-05-14T00:46:01;8.00;99.90
16700;DHT22;8466;52.286;21.124;2023-05-14T00:48:30;8.00;99.90
16700;DHT22;8466;52.286;21.124;2023-05-14T00:51:00;7.90;99.90
16700;DHT22;8466;52.286;21.124;2023-05-14T00:53:29;7.90;99.90
16700;DHT22;8466;52.286;21.124;2023-05-14T00:55:58;7.80;99.90
16700;DHT22;8466;52.286;21.124;2023-05-14T00:58:26;7.80;99.90
16700;DHT22;8466;52.286;21.124;2023-05-14T01:00:55;7.70;99.90
16700;DHT22;8466;52.286;21.124;2023-05-14T01:03:24;7.70;99.90
16700;DHT22;8466;52.286;21.124;2023-05-14T01:05:58;7.70;99.90
16700;DHT22;8466;52.286;21.124;2023-05-14T01:08:39;7.70;99.90
16700;DHT22;8466;52.286;21.124;2023-05-14T01:11:15;7.60;99.90
16700;DHT22;8466;52.286;21.124;2023-05-14T01:13:58;7.60;99.90
16700;DHT22;8466;52.286;21.124;2023-05-14T01:16:33;7.50;99.90
16700;DHT22;8466;52.286;21.124;2023-05-14T01:19:06;7.40;99.90
16700;DHT22;8466;52.286;21.124;2023-05-14T01:21:42;7.40;99.90
16700;DHT22;8466;52.286;21.124;2023-05-14T01:24:11;7.30;99.90
16700;DHT22;8466;52.286;21.124;2023-05-14T01:26:40;7.30;99.90
16700;DHT22;8466;52.286;21.124;2023-05-14T01:29:14;7.30;99.90
16700;DHT22;8466;52.286;21.124;2023-05-14T01:31:44;7.20;99.90
16700;DHT22;8466;52.286;21.124;2023-05-14T01:34:15;7.20;99.90
16700;DHT22;8466;52.286;21.124;2023-05-14T01:36:49;7.20;99.90
16700;DHT22;8466;52.286;21.124;2023-05-14T01:43:04;7.10;99.90
16700;DHT22;8466;52.286;21.124;2023-05-14T01:45:34;7.10;99.90
16700;DHT22;8466;52.286;21.124;2023-05-14T01:48:03;7.00;99.90
16700;DHT22;8466;52.286;21.124;2023-05-14T01:50:32;7.00;99.90
16700;DHT22;8466;52.286;21.124;2023-05-14T01:53:02;6.90;99.90
16700;DHT22;8466;52.286;21.124;2023-05-14T01:55:31;6.90;99.90
16700;DHT22;8466;52.286;21.124;2023-05-14T01:57:59;6.80;99.90
16700;DHT22;8466;52.286;21.124;2023-05-14T02:00:28;6.70;99.90
16700;DHT22;8466;52.286;21.124;2023-05-14T02:02:56;6.70;99.90
16700;DHT22;8466;52.286;21.124;2023-05-14T02:05:25;6.60;99.90
16700;DHT22;8466;52.286;21.124;2023-05-14T02:07:54;6.60;99.90
16700;DHT22;8466;52.286;21.124;2023-05-14T02:10:24;6.50;99.90
16700;DHT22;8466;52.286;21.124;2023-05-14T02:12:52;6.50;99.90
16700;DHT22;8466;52.286;21.124;2023-05-14T02:15:21;6.40;99.90
16700;DHT22;8466;52.286;21.124;2023-05-14T02:17:50;6.40;99.90
16700;DHT22;8466;52.286;21.124;2023-05-14T02:20:18;6.40;99.90
16700;DHT22;8466;52.286;21.124;2023-05-14T02:22:47;6.40;99.90
16700;DHT22;8466;52.286;21.124;2023-05-14T02:25:16;6.40;99.90
16700;DHT22;8466;52.286;21.124;2023-05-14T02:27:46;6.30;99.90
16700;DHT22;8466;52.286;21.124;2023-05-14T02:30:15;6.30;99.90
16700;DHT22;8466;52.286;21.124;2023-05-14T02:32:44;6.40;99.90
16700;DHT22;8466;52.286;21.124;2023-05-14T02:35:12;6.30;99.90
16700;DHT22;8466;52.286;21.124;2023-05-14T02:37:41;6.30;99.90
16700;DHT22;8466;52.286;21.124;2023-05-14T02:40:10;6.30;99.90
16700;DHT22;8466;52.286;21.124;2023-05-14T02:42:39;6.30;99.90
16700;DHT22;8466;52.286;21.124;2023-05-14T02:45:09;6.20;99.90
16700;DHT22;8466;52.286;21.124;2023-05-14T02:47:38;6.30;99.90
16700;DHT22;8466;52.286;21.124;2023-05-14T02:50:08;6.30;99.90
16700;DHT22;8466;52.286;21.124;2023-05-14T02:52:37;6.20;99.90
16700;DHT22;8466;52.286;21.124;2023-05-14T02:55:06;6.30;99.90
16700;DHT22;8466;52.286;21.124;2023-05-14T02:57:35;6.30;99.90
16700;DHT22;8466;52.286;21.124;2023-05-14T03:00:04;6.30;99.90
16700;DHT22;8466;52.286;21.124;2023-05-14T03:02:35;6.30;99.90
16700;DHT22;8466;52.286;21.124;2023-05-14T03:05:05;6.30;99.90
16700;DHT22;8466;52.286;21.124;2023-05-14T03:07:34;6.40;99.90
16700;DHT22;8466;52.286;21.124;2023-05-14T03:10:02;6.40;99.90
16700;DHT22;8466;52.286;21.124;2023-05-14T03:12:31;6.40;99.90
16700;DHT22;8466;52.286;21.124;2023-05-14T03:15:00;6.30;99.90
16700;DHT22;8466;52.286;21.124;2023-05-14T03:17:29;6.30;99.90
16700;DHT22;8466;52.286;21.124;2023-05-14T03:19:59;6.40;99.90
16700;DHT22;8466;52.286;21.124;2023-05-14T03:22:27;6.40;99.90
16700;DHT22;8466;52.286;21.124;2023-05-14T03:24:56;6.40;99.90
16700;DHT22;8466;52.286;21.124;2023-05-14T03:27:25;6.50;99.90
16700;DHT22;8466;52.286;21.124;2023-05-14T03:29:54;6.50;99.90
16700;DHT22;8466;52.286;21.124;2023-05-14T03:32:22;6.60;99.90
16700;DHT22;8466;52.286;21.124;2023-05-14T03:34:51;6.60;99.90
16700;DHT22;8466;52.286;21.124;2023-05-14T03:37:21;6.70;99.90
16700;DHT22;8466;52.286;21.124;2023-05-14T03:39:50;6.80;99.90
16700;DHT22;8466;52.286;21.124;2023-05-14T03:42:18;6.80;99.90
16700;DHT22;8466;52.286;21.124;2023-05-14T03:44:47;7.00;99.90
16700;DHT22;8466;52.286;21.124;2023-05-14T03:47:15;7.00;99.90
16700;DHT22;8466;52.286;21.124;2023-05-14T03:49:44;7.10;99.90
16700;DHT22;8466;52.286;21.124;2023-05-14T03:52:12;7.10;99.90
16700;DHT22;8466;52.286;21.124;2023-05-14T03:54:42;7.20;99.90
16700;DHT22;8466;52.286;21.124;2023-05-14T03:57:11;7.40;99.90
16700;DHT22;8466;52.286;21.124;2023-05-14T03:59:39;7.60;99.90
16700;DHT22;8466;52.286;21.124;2023-05-14T04:02:08;8.20;99.90
16700;DHT22;8466;52.286;21.124;2023-05-14T04:04:37;9.60;99.90
16700;DHT22;8466;52.286;21.124;2023-05-14T04:07:06;11.20;99.90
16700;DHT22;8466;52.286;21.124;2023-05-14T04:09:34;12.90;99.90
16700;DHT22;8466;52.286;21.124;2023-05-14T04:12:06;14.30;99.90
16700;DHT22;8466;52.286;21.124;2023-05-14T04:14:34;15.60;99.90
16700;DHT22;8466;52.286;21.124;2023-05-14T04:17:03;16.60;99.90
16700;DHT22;8466;52.286;21.124;2023-05-14T04:19:32;17.50;98.90
16700;DHT22;8466;52.286;21.124;2023-05-14T04:22:00;18.10;96.90
16700;DHT22;8466;52.286;21.124;2023-05-14T04:24:29;18.70;95.40
16700;DHT22;8466;52.286;21.124;2023-05-14T04:26:58;19.10;94.00
16700;DHT22;8466;52.286;21.124;2023-05-14T04:29:28;19.50;92.40
16700;DHT22;8466;52.286;21.124;2023-05-14T04:31:57;19.70;91.50
16700;DHT22;8466;52.286;21.124;2023-05-14T04:34:26;19.70;91.00
16700;DHT22;8466;52.286;21.124;2023-05-14T04:36:55;19.20;90.80
16700;DHT22;8466;52.286;21.124;2023-05-14T04:39:24;18.50;91.30
16700;DHT22;8466;52.286;21.124;2023-05-14T04:41:53;17.50;92.50
16700;DHT22;8466;52.286;21.124;2023-05-14T04:44:21;16.40;94.80
16700;DHT22;8466;52.286;21.124;2023-05-14T04:46:51;15.40;96.40
16700;DHT22;8466;52.286;21.124;2023-05-14T04:49:20;14.60;98.50
16700;DHT22;8466;52.286;21.124;2023-05-14T04:51:48;14.00;99.90
16700;DHT22;8466;52.286;21.124;2023-05-14T04:54:17;13.60;99.90
16700;DHT22;8466;52.286;21.124;2023-05-14T04:56:46;13.50;99.90
16700;DHT22;8466;52.286;21.124;2023-05-14T04:59:14;13.30;99.90
16700;DHT22;8466;52.286;21.124;2023-05-14T05:01:43;13.20;99.90
16700;DHT22;8466;52.286;21.124;2023-05-14T05:04:13;13.00;99.90
16700;DHT22;8466;52.286;21.124;2023-05-14T05:06:42;12.90;99.90
16700;DHT22;8466;52.286;21.124;2023-05-14T05:09:11;12.80;99.90
16700;DHT22;8466;52.286;21.124;2023-05-14T05:11:40;12.70;99.90
16700;DHT22;8466;52.286;21.124;2023-05-14T05:14:08;12.70;99.90
16700;DHT22;8466;52.286;21.124;2023-05-14T05:16:37;12.60;99.90
16700;DHT22;8466;52.286;21.124;2023-05-14T05:19:05;12.60;99.90
16700;DHT22;8466;52.286;21.124;2023-05-14T05:21:36;12.60;99.90
16700;DHT22;8466;52.286;21.124;2023-05-14T05:24:07;12.60;99.90
16700;DHT22;8466;52.286;21.124;2023-05-14T05:26:35;12.60;99.90
16700;DHT22;8466;52.286;21.124;2023-05-14T05:29:04;12.70;99.90
16700;DHT22;8466;52.286;21.124;2023-05-14T05:31:33;12.80;99.90
16700;DHT22;8466;52.286;21.124;2023-05-14T05:34:02;12.90;99.90
16700;DHT22;8466;52.286;21.124;2023-05-14T05:36:32;12.90;99.90
16700;DHT22;8466;52.286;21.124;2023-05-14T05:39:02;13.10;99.90
16700;DHT22;8466;52.286;21.124;2023-05-14T05:41:31;13.20;99.90
16700;DHT22;8466;52.286;21.124;2023-05-14T05:44:00;13.30;99.90
16700;DHT22;8466;52.286;21.124;2023-05-14T05:46:28;13.40;99.90
16700;DHT22;8466;52.286;21.124;2023-05-14T05:48:57;13.50;99.90
16700;DHT22;8466;52.286;21.124;2023-05-14T05:51:25;13.60;99.90
16700;DHT22;8466;52.286;21.124;2023-05-14T05:53:54;13.60;99.90
16700;DHT22;8466;52.286;21.124;2023-05-14T05:56:24;13.80;99.90
16700;DHT22;8466;52.286;21.124;2023-05-14T05:58:53;13.90;99.90
16700;DHT22;8466;52.286;21.124;2023-05-14T06:01:21;14.00;99.90
16700;DHT22;8466;52.286;21.124;2023-05-14T06:03:50;14.10;99.90
16700;DHT22;8466;52.286;21.124;2023-05-14T06:06:18;14.20;99.90
16700;DHT22;8466;52.286;21.124;2023-05-14T06:08:47;14.40;99.90
16700;DHT22;8466;52.286;21.124;2023-05-14T06:11:16;14.50;99.90
16700;DHT22;8466;52.286;21.124;2023-05-14T06:13:46;14.60;99.90
16700;DHT22;8466;52.286;21.124;2023-05-14T06:16:15;14.80;99.90
16700;DHT22;8466;52.286;21.124;2023-05-14T06:18:43;15.00;99.90
16700;DHT22;8466;52.286;21.124;2023-05-14T06:21:12;15.10;99.90
16700;DHT22;8466;52.286;21.124;2023-05-14T06:23:41;15.30;99.90
16700;DHT22;8466;52.286;21.124;2023-05-14T06:26:10;15.40;99.90
16700;DHT22;8466;52.286;21.124;2023-05-14T06:28:38;15.50;99.90
16700;DHT22;8466;52.286;21.124;2023-05-14T06:31:08;15.60;99.90
16700;DHT22;8466;52.286;21.124;2023-05-14T06:33:37;15.80;99.90
16700;DHT22;8466;52.286;21.124;2023-05-14T06:36:06;15.90;99.90
16700;DHT22;8466;52.286;21.124;2023-05-14T06:38:35;16.10;99.90
16700;DHT22;8466;52.286;21.124;2023-05-14T06:41:04;16.20;99.90
16700;DHT22;8466;52.286;21.124;2023-05-14T06:43:32;16.40;99.90
16700;DHT22;8466;52.286;21.124;2023-05-14T06:46:01;16.50;99.90
16700;DHT22;8466;52.286;21.124;2023-05-14T06:48:31;16.60;99.90
16700;DHT22;8466;52.286;21.124;2023-05-14T06:51:00;16.80;99.10
16700;DHT22;8466;52.286;21.124;2023-05-14T06:53:30;16.90;98.20
16700;DHT22;8466;52.286;21.124;2023-05-14T06:55:58;17.10;98.40
16700;DHT22;8466;52.286;21.124;2023-05-14T06:58:55;17.20;98.90
16700;DHT22;8466;52.286;21.124;2023-05-14T07:01:24;17.40;97.00
16700;DHT22;8466;52.286;21.124;2023-05-14T07:03:54;17.40;96.50
16700;DHT22;8466;52.286;21.124;2023-05-14T07:06:24;17.50;96.50
16700;DHT22;8466;52.286;21.124;2023-05-14T07:08:52;17.70;96.60
16700;DHT22;8466;52.286;21.124;2023-05-14T07:11:21;17.70;95.20
16700;DHT22;8466;52.286;21.124;2023-05-14T07:13:50;18.00;92.80
16700;DHT22;8466;52.286;21.124;2023-05-14T07:16:19;18.10;92.90
16700;DHT22;8466;52.286;21.124;2023-05-14T07:18:50;18.20;92.80
16700;DHT22;8466;52.286;21.124;2023-05-14T07:21:21;18.30;92.50
16700;DHT22;8466;52.286;21.124;2023-05-14T07:23:50;18.40;90.80
16700;DHT22;8466;52.286;21.124;2023-05-14T07:26:19;18.40;90.00
16700;DHT22;8466;52.286;21.124;2023-05-14T07:28:51;18.50;89.10
16700;DHT22;8466;52.286;21.124;2023-05-14T07:31:20;18.60;88.20
16700;DHT22;8466;52.286;21.124;2023-05-14T07:33:52;18.70;89.10
16700;DHT22;8466;52.286;21.124;2023-05-14T07:36:23;18.70;89.60
16700;DHT22;8466;52.286;21.124;2023-05-14T07:38:52;18.80;88.40
16700;DHT22;8466;52.286;21.124;2023-05-14T07:41:21;18.90;84.50
16700;DHT22;8466;52.286;21.124;2023-05-14T07:43:50;19.00;86.60
16700;DHT22;8466;52.286;21.124;2023-05-14T07:46:19;19.10;83.30
16700;DHT22;8466;52.286;21.124;2023-05-14T07:48:51;19.10;80.50
16700;DHT22;8466;52.286;21.124;2023-05-14T07:51:20;19.20;75.80
16700;DHT22;8466;52.286;21.124;2023-05-14T07:53:50;19.20;77.50
16700;DHT22;8466;52.286;21.124;2023-05-14T07:56:20;19.30;76.30
16700;DHT22;8466;52.286;21.124;2023-05-14T07:58:49;19.30;76.20
16700;DHT22;8466;52.286;21.124;2023-05-14T08:01:19;19.40;77.70
16700;DHT22;8466;52.286;21.124;2023-05-14T08:03:50;19.40;78.30
16700;DHT22;8466;52.286;21.124;2023-05-14T08:06:26;19.40;77.40
16700;DHT22;8466;52.286;21.124;2023-05-14T08:09:00;19.50;78.30
16700;DHT22;8466;52.286;21.124;2023-05-14T08:11:32;19.60;75.40
16700;DHT22;8466;52.286;21.124;2023-05-14T08:14:01;19.80;75.90
16700;DHT22;8466;52.286;21.124;2023-05-14T08:16:31;19.90;76.00
16700;DHT22;8466;52.286;21.124;2023-05-14T08:19:04;19.90;75.00
16700;DHT22;8466;52.286;21.124;2023-05-14T08:21:39;19.90;73.90
16700;DHT22;8466;52.286;21.124;2023-05-14T08:24:16;20.00;74.30
16700;DHT22;8466;52.286;21.124;2023-05-14T08:26:50;20.10;73.90
16700;DHT22;8466;52.286;21.124;2023-05-14T08:29:19;20.10;71.40
16700;DHT22;8466;52.286;21.124;2023-05-14T08:31:49;20.20;72.00
16700;DHT22;8466;52.286;21.124;2023-05-14T08:34:18;20.20;73.00
16700;DHT22;8466;52.286;21.124;2023-05-14T08:36:46;20.20;72.30
16700;DHT22;8466;52.286;21.124;2023-05-14T08:39:16;20.20;72.20
16700;DHT22;8466;52.286;21.124;2023-05-14T08:41:45;20.20;72.40
16700;DHT22;8466;52.286;21.124;2023-05-14T08:44:18;20.20;72.80
16700;DHT22;8466;52.286;21.124;2023-05-14T08:46:49;20.40;70.10
16700;DHT22;8466;52.286;21.124;2023-05-14T08:49:27;20.50;70.90
16700;DHT22;8466;52.286;21.124;2023-05-14T08:52:06;20.60;69.10
16700;DHT22;8466;52.286;21.124;2023-05-14T08:54:39;20.60;69.80
16700;DHT22;8466;52.286;21.124;2023-05-14T08:57:09;20.60;69.00
16700;DHT22;8466;52.286;21.124;2023-05-14T08:59:38;20.60;69.10
16700;DHT22;8466;52.286;21.124;2023-05-14T09:02:09;20.60;73.20
16700;DHT22;8466;52.286;21.124;2023-05-14T09:04:39;20.60;70.60
16700;DHT22;8466;52.286;21.124;2023-05-14T09:07:08;20.60;70.70
16700;DHT22;8466;52.286;21.124;2023-05-14T09:09:39;20.60;70.50
16700;DHT22;8466;52.286;21.124;2023-05-14T09:12:08;20.60;71.80
16700;DHT22;8466;52.286;21.124;2023-05-14T09:14:37;20.70;68.60
16700;DHT22;8466;52.286;21.124;2023-05-14T09:17:07;20.70;71.00
16700;DHT22;8466;52.286;21.124;2023-05-14T09:19:38;20.80;69.80
16700;DHT22;8466;52.286;21.124;2023-05-14T09:22:09;20.80;66.70
16700;DHT22;8466;52.286;21.124;2023-05-14T09:24:40;20.90;68.30
16700;DHT22;8466;52.286;21.124;2023-05-14T09:27:14;20.90;68.80
16700;DHT22;8466;52.286;21.124;2023-05-14T09:29:43;20.90;67.30
16700;DHT22;8466;52.286;21.124;2023-05-14T09:32:12;21.00;68.60
16700;DHT22;8466;52.286;21.124;2023-05-14T09:34:41;21.10;65.80
16700;DHT22;8466;52.286;21.124;2023-05-14T09:37:10;21.20;65.40
16700;DHT22;8466;52.286;21.124;2023-05-14T09:39:40;21.30;65.00
16700;DHT22;8466;52.286;21.124;2023-05-14T09:42:09;21.30;66.20
16700;DHT22;8466;52.286;21.124;2023-05-14T09:44:38;21.30;67.90
16700;DHT22;8466;52.286;21.124;2023-05-14T09:47:07;21.40;65.70
16700;DHT22;8466;52.286;21.124;2023-05-14T09:49:35;21.40;65.30
16700;DHT22;8466;52.286;21.124;2023-05-14T09:52:05;21.50;65.20
16700;DHT22;8466;52.286;21.124;2023-05-14T09:54:35;21.60;64.20
16700;DHT22;8466;52.286;21.124;2023-05-14T09:57:07;21.70;62.60
16700;DHT22;8466;52.286;21.124;2023-05-14T09:59:36;21.70;61.60
16700;DHT22;8466;52.286;21.124;2023-05-14T10:02:04;21.60;61.80
16700;DHT22;8466;52.286;21.124;2023-05-14T10:04:38;21.70;60.80
16700;DHT22;8466;52.286;21.124;2023-05-14T10:07:07;21.70;61.90
16700;DHT22;8466;52.286;21.124;2023-05-14T10:09:39;21.70;62.00
16700;DHT22;8466;52.286;21.124;2023-05-14T10:12:15;21.70;63.50
16700;DHT22;8466;52.286;21.124;2023-05-14T10:14:46;21.70;61.50
16700;DHT22;8466;52.286;21.124;2023-05-14T10:17:20;21.70;62.40
16700;DHT22;8466;52.286;21.124;2023-05-14T10:19:52;21.70;60.20
16700;DHT22;8466;52.286;21.124;2023-05-14T10:22:22;21.80;60.90
16700;DHT22;8466;52.286;21.124;2023-05-14T10:24:53;21.80;61.20
16700;DHT22;8466;52.286;21.124;2023-05-14T10:27:24;21.80;59.70
16700;DHT22;8466;52.286;21.124;2023-05-14T10:29:55;21.80;61.10
16700;DHT22;8466;52.286;21.124;2023-05-14T10:32:24;21.70;60.60
16700;DHT22;8466;52.286;21.124;2023-05-14T10:34:53;21.70;59.90
16700;DHT22;8466;52.286;21.124;2023-05-14T10:37:23;21.80;61.30
16700;DHT22;8466;52.286;21.124;2023-05-14T10:39:53;21.80;66.80
16700;DHT22;8466;52.286;21.124;2023-05-14T10:42:28;22.00;59.30
16700;DHT22;8466;52.286;21.124;2023-05-14T10:45:01;22.20;59.70
16700;DHT22;8466;52.286;21.124;2023-05-14T10:47:35;22.30;63.00
16700;DHT22;8466;52.286;21.124;2023-05-14T10:50:05;22.30;60.30
16700;DHT22;8466;52.286;21.124;2023-05-14T10:52:34;22.40;60.50
16700;DHT22;8466;52.286;21.124;2023-05-14T10:55:04;22.60;59.90
16700;DHT22;8466;52.286;21.124;2023-05-14T10:57:38;22.60;60.50
16700;DHT22;8466;52.286;21.124;2023-05-14T11:00:08;22.80;61.50
16700;DHT22;8466;52.286;21.124;2023-05-14T11:02:39;22.90;65.40
16700;DHT22;8466;52.286;21.124;2023-05-14T11:05:10;23.00;63.20
16700;DHT22;8466;52.286;21.124;2023-05-14T11:07:42;23.10;59.00
16700;DHT22;8466;52.286;21.124;2023-05-14T11:10:12;23.10;60.50
16700;DHT22;8466;52.286;21.124;2023-05-14T11:12:43;23.20;59.20
16700;DHT22;8466;52.286;21.124;2023-05-14T11:15:14;23.20;60.10
16700;DHT22;8466;52.286;21.124;2023-05-14T11:17:45;23.20;59.10
16700;DHT22;8466;52.286;21.124;2023-05-14T11:20:14;23.20;59.40
16700;DHT22;8466;52.286;21.124;2023-05-14T11:22:44;23.30;58.50
16700;DHT22;8466;52.286;21.124;2023-05-14T11:25:14;23.40;57.50
16700;DHT22;8466;52.286;21.124;2023-05-14T11:27:46;23.40;57.60
16700;DHT22;8466;52.286;21.124;2023-05-14T11:30:15;23.40;57.20
16700;DHT22;8466;52.286;21.124;2023-05-14T11:32:45;23.40;57.70
16700;DHT22;8466;52.286;21.124;2023-05-14T11:35:15;23.50;57.80
16700;DHT22;8466;52.286;21.124;2023-05-14T11:37:49;23.50;56.10
16700;DHT22;8466;52.286;21.124;2023-05-14T11:40:19;23.40;57.00
16700;DHT22;8466;52.286;21.124;2023-05-14T11:42:51;23.40;57.30
16700;DHT22;8466;52.286;21.124;2023-05-14T11:45:24;23.20;58.30
16700;DHT22;8466;52.286;21.124;2023-05-14T11:47:54;23.20;56.70
16700;DHT22;8466;52.286;21.124;2023-05-14T11:50:22;23.10;58.30
16700;DHT22;8466;52.286;21.124;2023-05-14T11:52:56;23.10;56.30
16700;DHT22;8466;52.286;21.124;2023-05-14T11:55:24;23.10;54.10
16700;DHT22;8466;52.286;21.124;2023-05-14T11:57:54;23.10;54.50
16700;DHT22;8466;52.286;21.124;2023-05-14T12:00:25;23.00;55.90
16700;DHT22;8466;52.286;21.124;2023-05-14T12:02:54;23.00;56.30
16700;DHT22;8466;52.286;21.124;2023-05-14T12:05:23;23.00;55.70
16700;DHT22;8466;52.286;21.124;2023-05-14T12:07:52;23.00;57.40
16700;DHT22;8466;52.286;21.124;2023-05-14T12:10:22;23.00;56.40
16700;DHT22;8466;52.286;21.124;2023-05-14T12:12:51;22.90;58.60
16700;DHT22;8466;52.286;21.124;2023-05-14T12:15:22;22.80;58.30
16700;DHT22;8466;52.286;21.124;2023-05-14T12:17:51;22.80;57.30
16700;DHT22;8466;52.286;21.124;2023-05-14T12:20:20;22.70;58.00
16700;DHT22;8466;52.286;21.124;2023-05-14T12:22:49;22.80;57.10
16700;DHT22;8466;52.286;21.124;2023-05-14T12:25:18;22.80;57.00
16700;DHT22;8466;52.286;21.124;2023-05-14T12:27:46;22.70;57.90
16700;DHT22;8466;52.286;21.124;2023-05-14T12:30:15;22.80;57.40
16700;DHT22;8466;52.286;21.124;2023-05-14T12:32:49;22.90;58.10
16700;DHT22;8466;52.286;21.124;2023-05-14T12:35:20;23.00;55.80
16700;DHT22;8466;52.286;21.124;2023-05-14T12:37:50;23.10;55.70
16700;DHT22;8466;52.286;21.124;2023-05-14T12:40:19;23.10;56.40
16700;DHT22;8466;52.286;21.124;2023-05-14T12:42:48;23.10;55.70
16700;DHT22;8466;52.286;21.124;2023-05-14T12:45:17;23.00;55.80
16700;DHT22;8466;52.286;21.124;2023-05-14T12:47:45;23.10;56.40
16700;DHT22;8466;52.286;21.124;2023-05-14T12:50:15;23.20;55.80
16700;DHT22;8466;52.286;21.124;2023-05-14T12:52:44;23.40;56.70
16700;DHT22;8466;52.286;21.124;2023-05-14T12:55:13;23.60;55.70
16700;DHT22;8466;52.286;21.124;2023-05-14T12:57:42;23.80;54.30
16700;DHT22;8466;52.286;21.124;2023-05-14T13:00:12;23.90;54.30
16700;DHT22;8466;52.286;21.124;2023-05-14T13:02:41;24.00;54.60
16700;DHT22;8466;52.286;21.124;2023-05-14T13:05:10;24.10;55.10
16700;DHT22;8466;52.286;21.124;2023-05-14T13:07:40;24.30;54.60
16700;DHT22;8466;52.286;21.124;2023-05-14T13:10:12;24.50;54.00
16700;DHT22;8466;52.286;21.124;2023-05-14T13:12:43;24.60;54.40
16700;DHT22;8466;52.286;21.124;2023-05-14T13:15:12;24.70;54.50
16700;DHT22;8466;52.286;21.124;2023-05-14T13:17:42;24.70;53.90
16700;DHT22;8466;52.286;21.124;2023-05-14T13:20:11;24.70;53.50
16700;DHT22;8466;52.286;21.124;2023-05-14T13:22:44;24.50;53.80
16700;DHT22;8466;52.286;21.124;2023-05-14T13:25:13;24.50;54.20
16700;DHT22;8466;52.286;21.124;2023-05-14T13:27:42;24.60;53.00
16700;DHT22;8466;52.286;21.124;2023-05-14T13:30:14;24.50;52.80
16700;DHT22;8466;52.286;21.124;2023-05-14T13:32:44;24.50;52.80
16700;DHT22;8466;52.286;21.124;2023-05-14T13:35:13;24.50;53.00
16700;DHT22;8466;52.286;21.124;2023-05-14T13:37:43;24.50;52.70
16700;DHT22;8466;52.286;21.124;2023-05-14T13:40:12;24.60;52.50
16700;DHT22;8466;52.286;21.124;2023-05-14T13:42:44;24.70;52.90
16700;DHT22;8466;52.286;21.124;2023-05-14T13:45:12;24.90;53.40
16700;DHT22;8466;52.286;21.124;2023-05-14T13:47:41;25.10;52.40
16700;DHT22;8466;52.286;21.124;2023-05-14T13:50:10;25.30;52.10
16700;DHT22;8466;52.286;21.124;2023-05-14T13:52:44;25.40;51.50
16700;DHT22;8466;52.286;21.124;2023-05-14T13:55:13;25.40;51.50
16700;DHT22;8466;52.286;21.124;2023-05-14T13:57:42;25.30;52.30
16700;DHT22;8466;52.286;21.124;2023-05-14T14:00:11;25.10;51.70
16700;DHT22;8466;52.286;21.124;2023-05-14T14:02:41;25.00;52.50
16700;DHT22;8466;52.286;21.124;2023-05-14T14:05:09;24.80;52.90
16700;DHT22;8466;52.286;21.124;2023-05-14T14:07:38;24.80;52.30
16700;DHT22;8466;52.286;21.124;2023-05-14T14:10:09;24.80;51.90
16700;DHT22;8466;52.286;21.124;2023-05-14T14:12:38;24.60;51.70
16700;DHT22;8466;52.286;21.124;2023-05-14T14:15:07;24.40;52.20
16700;DHT22;8466;52.286;21.124;2023-05-14T14:17:36;24.20;52.60
16700;DHT22;8466;52.286;21.124;2023-05-14T14:20:07;24.10;53.20
16700;DHT22;8466;52.286;21.124;2023-05-14T14:22:36;24.00;53.10
16700;DHT22;8466;52.286;21.124;2023-05-14T14:25:05;23.80;53.20
16700;DHT22;8466;52.286;21.124;2023-05-14T14:27:36;23.60;53.30
16700;DHT22;8466;52.286;21.124;2023-05-14T14:30:06;23.30;54.70
16700;DHT22;8466;52.286;21.124;2023-05-14T14:32:36;23.20;54.70
16700;DHT22;8466;52.286;21.124;2023-05-14T14:35:05;23.20;55.10
16700;DHT22;8466;52.286;21.124;2023-05-14T14:37:33;23.20;53.70
16700;DHT22;8466;52.286;21.124;2023-05-14T14:40:03;23.40;54.00
16700;DHT22;8466;52.286;21.124;2023-05-14T14:42:34;23.40;53.70
16700;DHT22;8466;52.286;21.124;2023-05-14T14:45:04;23.40;53.50
16700;DHT22;8466;52.286;21.124;2023-05-14T14:47:33;23.30;53.00
16700;DHT22;8466;52.286;21.124;2023-05-14T14:50:02;23.00;53.40
16700;DHT22;8466;52.286;21.124;2023-05-14T14:52:31;22.80;54.70
16700;DHT22;8466;52.286;21.124;2023-05-14T14:55:00;22.80;55.90
16700;DHT22;8466;52.286;21.124;2023-05-14T14:57:28;23.00;55.00
16700;DHT22;8466;52.286;21.124;2023-05-14T14:59:58;23.10;54.80
16700;DHT22;8466;52.286;21.124;2023-05-14T15:02:28;23.20;55.10
16700;DHT22;8466;52.286;21.124;2023-05-14T15:04:57;23.50;54.50
16700;DHT22;8466;52.286;21.124;2023-05-14T15:07:26;24.00;53.20
16700;DHT22;8466;52.286;21.124;2023-05-14T15:09:59;24.50;53.20
16700;DHT22;8466;52.286;21.124;2023-05-14T15:12:30;24.90;51.80
16700;DHT22;8466;52.286;21.124;2023-05-14T15:15:00;25.20;51.10
16700;DHT22;8466;52.286;21.124;2023-05-14T15:17:30;25.40;51.60
16700;DHT22;8466;52.286;21.124;2023-05-14T15:19:58;25.60;51.70
16700;DHT22;8466;52.286;21.124;2023-05-14T15:22:34;25.90;50.70
16700;DHT22;8466;52.286;21.124;2023-05-14T15:25:17;26.00;51.70
16700;DHT22;8466;52.286;21.124;2023-05-14T15:28:06;26.10;50.70
16700;DHT22;8466;52.286;21.124;2023-05-14T15:30:52;26.10;49.60
16700;DHT22;8466;52.286;21.124;2023-05-14T15:33:36;25.90;49.50
16700;DHT22;8466;52.286;21.124;2023-05-14T15:36:22;25.50;50.50
16700;DHT22;8466;52.286;21.124;2023-05-14T15:39:02;25.10;50.30
16700;DHT22;8466;52.286;21.124;2023-05-14T15:41:44;24.50;51.00
16700;DHT22;8466;52.286;21.124;2023-05-14T15:44:25;24.10;51.90
16700;DHT22;8466;52.286;21.124;2023-05-14T15:47:11;23.80;51.90
16700;DHT22;8466;52.286;21.124;2023-05-14T15:49:49;23.50;52.90
16700;DHT22;8466;52.286;21.124;2023-05-14T15:52:28;23.20;53.00
16700;DHT22;8466;52.286;21.124;2023-05-14T15:55:11;23.00;54.40
16700;DHT22;8466;52.286;21.124;2023-05-14T15:57:53;22.70;54.90